sensor_id;sensor_type;location;lat;lon;timestamp;P1;durP1;ratioP1;P2;durP2;ratioP2
43160;SDS011;40968;52.342;5.528;2023-09-18T00:01:42;44.60;;;17.45;;
43160;SDS011;40968;52.342;5.528;2023-09-18T00:04:09;47.97;;;18.90;;
43160;SDS011;40968;52.342;5.528;2023-09-18T00:06:36;41.20;;;17.80;;
43160;SDS011;40968;52.342;5.528;2023-09-18T00:09:02;47.60;;;19.02;;
43160;SDS011;40968;52.342;5.528;2023-09-18T00:11:30;46.35;;;18.13;;
43160;SDS011;40968;52.342;5.528;2023-09-18T00:13:57;44.65;;;17.48;;
43160;SDS011;40968;52.342;5.528;2023-09-18T00:16:23;40.25;;;17.13;;
43160;SDS011;40968;52.342;5.528;2023-09-18T00:18:52;43.67;;;17.67;;
43160;SDS011;40968;52.342;5.528;2023-09-18T00:21:18;41.22;;;17.13;;
43160;SDS011;40968;52.342;5.528;2023-09-18T00:23:45;50.53;;;17.55;;
43160;SDS011;40968;52.342;5.528;2023-09-18T00:26:12;45.10;;;17.88;;
43160;SDS011;40968;52.342;5.528;2023-09-18T00:28:40;43.30;;;16.77;;
43160;SDS011;40968;52.342;5.528;2023-09-18T00:31:06;45.75;;;16.88;;
43160;SDS011;40968;52.342;5.528;2023-09-18T00:33:33;48.03;;;16.58;;
43160;SDS011;40968;52.342;5.528;2023-09-18T00:36:00;35.65;;;15.88;;
43160;SDS011;40968;52.342;5.528;2023-09-18T00:38:27;36.60;;;15.30;;
43160;SDS011;40968;52.342;5.528;2023-09-18T00:40:53;41.20;;;14.95;;
43160;SDS011;40968;52.342;5.528;2023-09-18T00:43:20;35.70;;;15.23;;
43160;SDS011;40968;52.342;5.528;2023-09-18T00:45:48;36.72;;;14.57;;
43160;SDS011;40968;52.342;5.528;2023-09-18T00:48:15;35.90;;;14.48;;
43160;SDS011;40968;52.342;5.528;2023-09-18T00:50:43;36.78;;;14.95;;
43160;SDS011;40968;52.342;5.528;2023-09-18T00:53:10;36.40;;;14.10;;
43160;SDS011;40968;52.342;5.528;2023-09-18T00:55:40;30.42;;;12.90;;
43160;SDS011;40968;52.342;5.528;2023-09-18T00:58:07;35.38;;;14.77;;
43160;SDS011;40968;52.342;5.528;2023-09-18T01:00:34;32.95;;;13.93;;
43160;SDS011;40968;52.342;5.528;2023-09-18T01:03:02;29.02;;;13.93;;
43160;SDS011;40968;52.342;5.528;2023-09-18T01:05:30;36.38;;;14.23;;
43160;SDS011;40968;52.342;5.528;2023-09-18T01:07:58;35.17;;;14.18;;
43160;SDS011;40968;52.342;5.528;2023-09-18T01:10:24;32.90;;;14.07;;
43160;SDS011;40968;52.342;5.528;2023-09-18T01:12:59;27.75;;;13.02;;
43160;SDS011;40968;52.342;5.528;2023-09-18T01:15:32;35.47;;;14.48;;
43160;SDS011;40968;52.342;5.528;2023-09-18T01:18:04;34.38;;;14.10;;
43160;SDS011;40968;52.342;5.528;2023-09-18T01:20:31;34.58;;;13.48;;
43160;SDS011;40968;52.342;5.528;2023-09-18T01:22:59;35.90;;;14.98;;
43160;SDS011;40968;52.342;5.528;2023-09-18T01:25:25;36.55;;;13.65;;
43160;SDS011;40968;52.342;5.528;2023-09-18T01:27:52;31.92;;;14.20;;
43160;SDS011;40968;52.342;5.528;2023-09-18T01:30:18;34.83;;;13.30;;
43160;SDS011;40968;52.342;5.528;2023-09-18T01:32:45;35.15;;;14.18;;
43160;SDS011;40968;52.342;5.528;2023-09-18T01:35:13;39.58;;;15.23;;
43160;SDS011;40968;52.342;5.528;2023-09-18T01:37:41;34.22;;;14.43;;
43160;SDS011;40968;52.342;5.528;2023-09-18T01:40:11;49.67;;;15.13;;
43160;SDS011;40968;52.342;5.528;2023-09-18T01:42:38;36.63;;;14.20;;
43160;SDS011;40968;52.342;5.528;2023-09-18T01:45:07;36.25;;;15.35;;
43160;SDS011;40968;52.342;5.528;2023-09-18T01:47:34;42.40;;;16.17;;
43160;SDS011;40968;52.342;5.528;2023-09-18T01:50:02;34.72;;;14.52;;
43160;SDS011;40968;52.342;5.528;2023-09-18T01:52:30;37.63;;;15.27;;
43160;SDS011;40968;52.342;5.528;2023-09-18T01:54:57;37.80;;;15.65;;
43160;SDS011;40968;52.342;5.528;2023-09-18T01:57:25;41.35;;;15.63;;
43160;SDS011;40968;52.342;5.528;2023-09-18T01:59:51;37.17;;;14.95;;
43160;SDS011;40968;52.342;5.528;2023-09-18T02:02:18;37.88;;;14.43;;
43160;SDS011;40968;52.342;5.528;2023-09-18T02:04:45;47.17;;;16.17;;
43160;SDS011;40968;52.342;5.528;2023-09-18T02:07:11;35.80;;;15.27;;
43160;SDS011;40968;52.342;5.528;2023-09-18T02:09:38;39.63;;;15.25;;
43160;SDS011;40968;52.342;5.528;2023-09-18T02:12:05;36.63;;;15.65;;
43160;SDS011;40968;52.342;5.528;2023-09-18T02:14:33;36.03;;;15.00;;
43160;SDS011;40968;52.342;5.528;2023-09-18T02:17:00;35.53;;;15.60;;
43160;SDS011;40968;52.342;5.528;2023-09-18T02:19:28;48.60;;;15.30;;
43160;SDS011;40968;52.342;5.528;2023-09-18T02:21:55;32.50;;;14.50;;
43160;SDS011;40968;52.342;5.528;2023-09-18T02:24:22;35.75;;;14.30;;
43160;SDS011;40968;52.342;5.528;2023-09-18T02:26:49;33.47;;;14.52;;
43160;SDS011;40968;52.342;5.528;2023-09-18T02:29:16;40.85;;;16.02;;
43160;SDS011;40968;52.342;5.528;2023-09-18T02:31:44;43.25;;;15.40;;
43160;SDS011;40968;52.342;5.528;2023-09-18T02:34:11;40.58;;;14.55;;
43160;SDS011;40968;52.342;5.528;2023-09-18T02:36:37;34.30;;;14.73;;
43160;SDS011;40968;52.342;5.528;2023-09-18T02:39:04;37.25;;;13.57;;
43160;SDS011;40968;52.342;5.528;2023-09-18T02:41:31;31.42;;;13.25;;
43160;SDS011;40968;52.342;5.528;2023-09-18T02:43:57;32.13;;;14.32;;
43160;SDS011;40968;52.342;5.528;2023-09-18T02:46:24;28.42;;;11.40;;
43160;SDS011;40968;52.342;5.528;2023-09-18T02:48:52;30.95;;;11.90;;
43160;SDS011;40968;52.342;5.528;2023-09-18T02:51:19;29.83;;;11.90;;
43160;SDS011;40968;52.342;5.528;2023-09-18T02:53:45;30.98;;;11.73;;
43160;SDS011;40968;52.342;5.528;2023-09-18T02:56:12;28.83;;;11.38;;
43160;SDS011;40968;52.342;5.528;2023-09-18T02:58:39;29.52;;;12.13;;
43160;SDS011;40968;52.342;5.528;2023-09-18T03:01:06;32.95;;;11.75;;
43160;SDS011;40968;52.342;5.528;2023-09-18T03:03:33;32.38;;;12.15;;
43160;SDS011;40968;52.342;5.528;2023-09-18T03:06:01;30.50;;;11.98;;
43160;SDS011;40968;52.342;5.528;2023-09-18T03:08:29;28.17;;;10.40;;
43160;SDS011;40968;52.342;5.528;2023-09-18T03:10:56;31.40;;;11.93;;
43160;SDS011;40968;52.342;5.528;2023-09-18T03:13:22;30.98;;;10.88;;
43160;SDS011;40968;52.342;5.528;2023-09-18T03:15:49;28.15;;;11.35;;
43160;SDS011;40968;52.342;5.528;2023-09-18T03:18:16;35.75;;;13.20;;
43160;SDS011;40968;52.342;5.528;2023-09-18T03:20:42;32.38;;;10.95;;
43160;SDS011;40968;52.342;5.528;2023-09-18T03:23:10;30.05;;;12.50;;
43160;SDS011;40968;52.342;5.528;2023-09-18T03:25:37;27.90;;;11.13;;
43160;SDS011;40968;52.342;5.528;2023-09-18T03:28:04;33.90;;;11.90;;
43160;SDS011;40968;52.342;5.528;2023-09-18T03:30:31;31.80;;;12.60;;
43160;SDS011;40968;52.342;5.528;2023-09-18T03:32:57;31.38;;;12.00;;
43160;SDS011;40968;52.342;5.528;2023-09-18T03:35:24;27.45;;;12.02;;
43160;SDS011;40968;52.342;5.528;2023-09-18T03:37:51;34.22;;;12.07;;
43160;SDS011;40968;52.342;5.528;2023-09-18T03:40:21;27.65;;;11.30;;
43160;SDS011;40968;52.342;5.528;2023-09-18T03:42:48;29.58;;;12.73;;
43160;SDS011;40968;52.342;5.528;2023-09-18T03:45:15;32.55;;;12.02;;
43160;SDS011;40968;52.342;5.528;2023-09-18T03:47:44;32.35;;;12.63;;
43160;SDS011;40968;52.342;5.528;2023-09-18T03:50:11;28.00;;;11.77;;
43160;SDS011;40968;52.342;5.528;2023-09-18T03:52:38;34.45;;;13.40;;
43160;SDS011;40968;52.342;5.528;2023-09-18T03:55:06;34.35;;;12.40;;
43160;SDS011;40968;52.342;5.528;2023-09-18T03:57:35;31.55;;;12.48;;
43160;SDS011;40968;52.342;5.528;2023-09-18T04:00:03;37.60;;;13.23;;
43160;SDS011;40968;52.342;5.528;2023-09-18T04:02:32;38.08;;;14.50;;
43160;SDS011;40968;52.342;5.528;2023-09-18T04:04:59;40.10;;;14.43;;
43160;SDS011;40968;52.342;5.528;2023-09-18T04:07:25;36.05;;;14.05;;
43160;SDS011;40968;52.342;5.528;2023-09-18T04:09:52;38.55;;;14.88;;
43160;SDS011;40968;52.342;5.528;2023-09-18T04:12:19;34.53;;;14.00;;
43160;SDS011;40968;52.342;5.528;2023-09-18T04:14:47;41.38;;;14.68;;
43160;SDS011;40968;52.342;5.528;2023-09-18T04:17:13;39.72;;;15.15;;
43160;SDS011;40968;52.342;5.528;2023-09-18T04:19:40;38.47;;;15.00;;
43160;SDS011;40968;52.342;5.528;2023-09-18T04:22:08;38.90;;;14.27;;
43160;SDS011;40968;52.342;5.528;2023-09-18T04:24:35;40.38;;;14.75;;
43160;SDS011;40968;52.342;5.528;2023-09-18T04:27:01;35.03;;;15.00;;
43160;SDS011;40968;52.342;5.528;2023-09-18T04:29:28;41.50;;;15.40;;
43160;SDS011;40968;52.342;5.528;2023-09-18T04:31:56;39.28;;;13.55;;
43160;SDS011;40968;52.342;5.528;2023-09-18T04:34:23;43.10;;;15.35;;
43160;SDS011;40968;52.342;5.528;2023-09-18T04:36:49;43.45;;;14.57;;
43160;SDS011;40968;52.342;5.528;2023-09-18T04:39:16;35.05;;;13.77;;
43160;SDS011;40968;52.342;5.528;2023-09-18T04:41:44;39.25;;;15.95;;
43160;SDS011;40968;52.342;5.528;2023-09-18T04:44:11;42.67;;;14.63;;
43160;SDS011;40968;52.342;5.528;2023-09-18T04:46:39;39.30;;;14.98;;
43160;SDS011;40968;52.342;5.528;2023-09-18T04:49:08;36.58;;;14.57;;
43160;SDS011;40968;52.342;5.528;2023-09-18T04:51:36;36.83;;;15.27;;
43160;SDS011;40968;52.342;5.528;2023-09-18T04:54:04;38.70;;;14.43;;
43160;SDS011;40968;52.342;5.528;2023-09-18T04:56:31;47.50;;;17.33;;
43160;SDS011;40968;52.342;5.528;2023-09-18T04:58:58;46.00;;;15.70;;
43160;SDS011;40968;52.342;5.528;2023-09-18T05:01:24;40.70;;;16.23;;
43160;SDS011;40968;52.342;5.528;2023-09-18T05:03:51;43.00;;;16.90;;
43160;SDS011;40968;52.342;5.528;2023-09-18T05:06:20;43.65;;;16.23;;
43160;SDS011;40968;52.342;5.528;2023-09-18T05:08:46;44.55;;;17.23;;
43160;SDS011;40968;52.342;5.528;2023-09-18T05:11:13;41.65;;;15.88;;
43160;SDS011;40968;52.342;5.528;2023-09-18T05:13:40;39.80;;;16.27;;
43160;SDS011;40968;52.342;5.528;2023-09-18T05:16:06;38.35;;;16.08;;
43160;SDS011;40968;52.342;5.528;2023-09-18T05:18:33;40.55;;;16.13;;
43160;SDS011;40968;52.342;5.528;2023-09-18T05:21:00;42.97;;;15.02;;
43160;SDS011;40968;52.342;5.528;2023-09-18T05:23:31;40.63;;;15.13;;
43160;SDS011;40968;52.342;5.528;2023-09-18T05:25:57;39.47;;;15.35;;
43160;SDS011;40968;52.342;5.528;2023-09-18T05:28:24;49.33;;;17.73;;
43160;SDS011;40968;52.342;5.528;2023-09-18T05:30:51;67.50;;;19.30;;
43160;SDS011;40968;52.342;5.528;2023-09-18T05:33:18;58.38;;;19.75;;
43160;SDS011;40968;52.342;5.528;2023-09-18T05:35:45;52.63;;;20.30;;
43160;SDS011;40968;52.342;5.528;2023-09-18T05:38:12;54.97;;;19.75;;
43160;SDS011;40968;52.342;5.528;2023-09-18T05:40:43;39.90;;;15.97;;
43160;SDS011;40968;52.342;5.528;2023-09-18T05:43:10;40.45;;;15.77;;
43160;SDS011;40968;52.342;5.528;2023-09-18T05:45:37;39.70;;;15.70;;
43160;SDS011;40968;52.342;5.528;2023-09-18T05:48:04;35.63;;;13.82;;
43160;SDS011;40968;52.342;5.528;2023-09-18T05:50:31;37.53;;;14.25;;
43160;SDS011;40968;52.342;5.528;2023-09-18T05:52:59;31.92;;;13.70;;
43160;SDS011;40968;52.342;5.528;2023-09-18T05:55:28;36.42;;;14.50;;
43160;SDS011;40968;52.342;5.528;2023-09-18T05:57:57;34.38;;;13.93;;
43160;SDS011;40968;52.342;5.528;2023-09-18T06:00:24;31.65;;;13.60;;
43160;SDS011;40968;52.342;5.528;2023-09-18T06:02:51;27.55;;;11.68;;
43160;SDS011;40968;52.342;5.528;2023-09-18T06:05:18;30.67;;;12.02;;
43160;SDS011;40968;52.342;5.528;2023-09-18T06:07:46;25.23;;;11.57;;
43160;SDS011;40968;52.342;5.528;2023-09-18T06:10:13;25.30;;;10.75;;
43160;SDS011;40968;52.342;5.528;2023-09-18T06:12:40;24.15;;;11.45;;
43160;SDS011;40968;52.342;5.528;2023-09-18T06:15:09;24.38;;;10.77;;
43160;SDS011;40968;52.342;5.528;2023-09-18T06:17:37;22.23;;;10.77;;
43160;SDS011;40968;52.342;5.528;2023-09-18T06:20:04;27.52;;;12.00;;
43160;SDS011;40968;52.342;5.528;2023-09-18T06:22:35;30.40;;;11.40;;
43160;SDS011;40968;52.342;5.528;2023-09-18T06:25:02;31.27;;;11.63;;
43160;SDS011;40968;52.342;5.528;2023-09-18T06:27:28;24.20;;;10.38;;
43160;SDS011;40968;52.342;5.528;2023-09-18T06:29:56;29.50;;;11.68;;
43160;SDS011;40968;52.342;5.528;2023-09-18T06:32:24;24.77;;;10.00;;
43160;SDS011;40968;52.342;5.528;2023-09-18T06:34:51;27.73;;;10.30;;
43160;SDS011;40968;52.342;5.528;2023-09-18T06:37:18;21.85;;;9.20;;
43160;SDS011;40968;52.342;5.528;2023-09-18T06:39:45;24.45;;;10.98;;
43160;SDS011;40968;52.342;5.528;2023-09-18T06:42:12;25.60;;;11.00;;
43160;SDS011;40968;52.342;5.528;2023-09-18T06:44:38;21.00;;;9.98;;
43160;SDS011;40968;52.342;5.528;2023-09-18T06:47:05;23.25;;;10.95;;
43160;SDS011;40968;52.342;5.528;2023-09-18T06:49:33;27.85;;;10.98;;
43160;SDS011;40968;52.342;5.528;2023-09-18T06:52:00;25.08;;;10.82;;
43160;SDS011;40968;52.342;5.528;2023-09-18T06:54:26;24.05;;;10.27;;
43160;SDS011;40968;52.342;5.528;2023-09-18T06:56:54;32.42;;;10.48;;
43160;SDS011;40968;52.342;5.528;2023-09-18T06:59:20;29.70;;;11.13;;
43160;SDS011;40968;52.342;5.528;2023-09-18T07:01:47;27.17;;;10.82;;
43160;SDS011;40968;52.342;5.528;2023-09-18T07:04:14;26.48;;;9.75;;
43160;SDS011;40968;52.342;5.528;2023-09-18T07:06:42;23.95;;;10.18;;
43160;SDS011;40968;52.342;5.528;2023-09-18T07:09:08;33.85;;;10.18;;
43160;SDS011;40968;52.342;5.528;2023-09-18T07:11:37;22.65;;;9.70;;
43160;SDS011;40968;52.342;5.528;2023-09-18T07:14:04;34.72;;;10.65;;
43160;SDS011;40968;52.342;5.528;2023-09-18T07:16:31;23.13;;;9.55;;
43160;SDS011;40968;52.342;5.528;2023-09-18T07:18:59;26.08;;;9.93;;
43160;SDS011;40968;52.342;5.528;2023-09-18T07:21:26;22.23;;;9.05;;
43160;SDS011;40968;52.342;5.528;2023-09-18T07:23:55;26.35;;;9.32;;
43160;SDS011;40968;52.342;5.528;2023-09-18T07:26:21;21.30;;;9.57;;
43160;SDS011;40968;52.342;5.528;2023-09-18T07:28:48;21.25;;;9.23;;
43160;SDS011;40968;52.342;5.528;2023-09-18T07:31:15;18.38;;;7.78;;
43160;SDS011;40968;52.342;5.528;2023-09-18T07:33:41;23.10;;;8.23;;
43160;SDS011;40968;52.342;5.528;2023-09-18T07:36:08;20.23;;;8.48;;
43160;SDS011;40968;52.342;5.528;2023-09-18T07:38:36;25.48;;;8.48;;
43160;SDS011;40968;52.342;5.528;2023-09-18T07:41:04;21.33;;;8.73;;
43160;SDS011;40968;52.342;5.528;2023-09-18T07:43:31;32.70;;;9.52;;
43160;SDS011;40968;52.342;5.528;2023-09-18T07:45:58;24.65;;;9.77;;
43160;SDS011;40968;52.342;5.528;2023-09-18T07:48:25;27.20;;;9.07;;
43160;SDS011;40968;52.342;5.528;2023-09-18T07:50:51;23.33;;;9.10;;
43160;SDS011;40968;52.342;5.528;2023-09-18T07:53:19;23.60;;;9.50;;
43160;SDS011;40968;52.342;5.528;2023-09-18T07:55:47;32.63;;;10.00;;
43160;SDS011;40968;52.342;5.528;2023-09-18T07:58:15;27.90;;;10.70;;
43160;SDS011;40968;52.342;5.528;2023-09-18T08:00:42;30.75;;;10.45;;
43160;SDS011;40968;52.342;5.528;2023-09-18T08:03:09;31.52;;;10.85;;
43160;SDS011;40968;52.342;5.528;2023-09-18T08:05:36;29.05;;;10.77;;
43160;SDS011;40968;52.342;5.528;2023-09-18T08:08:02;30.02;;;11.05;;
43160;SDS011;40968;52.342;5.528;2023-09-18T08:10:31;26.20;;;11.73;;
43160;SDS011;40968;52.342;5.528;2023-09-18T08:12:57;29.95;;;11.50;;
43160;SDS011;40968;52.342;5.528;2023-09-18T08:15:26;27.20;;;11.07;;
43160;SDS011;40968;52.342;5.528;2023-09-18T08:17:54;26.88;;;11.68;;
43160;SDS011;40968;52.342;5.528;2023-09-18T08:20:20;29.55;;;12.07;;
43160;SDS011;40968;52.342;5.528;2023-09-18T08:22:47;27.10;;;10.88;;
43160;SDS011;40968;52.342;5.528;2023-09-18T08:25:15;27.63;;;11.82;;
43160;SDS011;40968;52.342;5.528;2023-09-18T08:27:42;28.80;;;11.45;;
43160;SDS011;40968;52.342;5.528;2023-09-18T08:30:09;27.25;;;10.77;;
43160;SDS011;40968;52.342;5.528;2023-09-18T08:32:38;26.08;;;11.40;;
43160;SDS011;40968;52.342;5.528;2023-09-18T08:35:06;28.73;;;10.23;;
43160;SDS011;40968;52.342;5.528;2023-09-18T08:37:33;29.73;;;10.68;;
43160;SDS011;40968;52.342;5.528;2023-09-18T08:40:00;24.02;;;10.18;;
43160;SDS011;40968;52.342;5.528;2023-09-18T08:42:35;25.17;;;9.20;;
43160;SDS011;40968;52.342;5.528;2023-09-18T08:45:05;23.83;;;9.75;;
43160;SDS011;40968;52.342;5.528;2023-09-18T08:47:34;26.00;;;9.40;;
43160;SDS011;40968;52.342;5.528;2023-09-18T08:50:05;24.58;;;10.23;;
43160;SDS011;40968;52.342;5.528;2023-09-18T08:52:33;33.63;;;9.07;;
43160;SDS011;40968;52.342;5.528;2023-09-18T08:55:01;26.77;;;9.25;;
43160;SDS011;40968;52.342;5.528;2023-09-18T08:57:28;21.15;;;9.50;;
43160;SDS011;40968;52.342;5.528;2023-09-18T08:59:56;20.80;;;9.02;;
43160;SDS011;40968;52.342;5.528;2023-09-18T09:02:26;19.52;;;8.63;;
43160;SDS011;40968;52.342;5.528;2023-09-18T09:04:53;20.83;;;8.25;;
43160;SDS011;40968;52.342;5.528;2023-09-18T09:07:21;18.70;;;7.90;;
43160;SDS011;40968;52.342;5.528;2023-09-18T09:09:48;15.05;;;7.00;;
43160;SDS011;40968;52.342;5.528;2023-09-18T09:12:15;16.55;;;6.97;;
43160;SDS011;40968;52.342;5.528;2023-09-18T09:14:43;18.10;;;6.65;;
43160;SDS011;40968;52.342;5.528;2023-09-18T09:17:29;20.77;;;7.63;;
43160;SDS011;40968;52.342;5.528;2023-09-18T09:20:05;18.27;;;7.40;;
43160;SDS011;40968;52.342;5.528;2023-09-18T09:22:37;17.13;;;6.90;;
43160;SDS011;40968;52.342;5.528;2023-09-18T09:25:09;23.65;;;6.72;;
43160;SDS011;40968;52.342;5.528;2023-09-18T09:27:48;27.90;;;6.68;;
43160;SDS011;40968;52.342;5.528;2023-09-18T09:30:18;15.38;;;6.60;;
43160;SDS011;40968;52.342;5.528;2023-09-18T09:35:18;14.00;;;5.43;;
43160;SDS011;40968;52.342;5.528;2023-09-18T09:37:48;13.30;;;6.03;;
43160;SDS011;40968;52.342;5.528;2023-09-18T09:40:15;17.10;;;5.88;;
43160;SDS011;40968;52.342;5.528;2023-09-18T09:42:42;17.35;;;6.20;;
43160;SDS011;40968;52.342;5.528;2023-09-18T09:45:11;17.05;;;5.65;;
43160;SDS011;40968;52.342;5.528;2023-09-18T09:47:39;17.42;;;5.55;;
43160;SDS011;40968;52.342;5.528;2023-09-18T09:50:07;11.90;;;4.95;;
43160;SDS011;40968;52.342;5.528;2023-09-18T09:52:35;16.25;;;5.10;;
43160;SDS011;40968;52.342;5.528;2023-09-18T09:55:19;16.23;;;5.43;;
43160;SDS011;40968;52.342;5.528;2023-09-18T09:57:47;12.95;;;5.03;;
43160;SDS011;40968;52.342;5.528;2023-09-18T10:00:14;12.00;;;4.63;;
43160;SDS011;40968;52.342;5.528;2023-09-18T10:02:52;12.80;;;4.82;;
43160;SDS011;40968;52.342;5.528;2023-09-18T10:05:22;10.70;;;4.72;;
43160;SDS011;40968;52.342;5.528;2023-09-18T10:07:52;11.18;;;4.72;;
43160;SDS011;40968;52.342;5.528;2023-09-18T10:10:21;12.98;;;5.35;;
43160;SDS011;40968;52.342;5.528;2023-09-18T10:12:48;9.07;;;4.95;;
43160;SDS011;40968;52.342;5.528;2023-09-18T10:15:15;9.45;;;4.70;;
43160;SDS011;40968;52.342;5.528;2023-09-18T10:17:45;9.85;;;4.88;;
43160;SDS011;40968;52.342;5.528;2023-09-18T10:20:15;18.50;;;4.70;;
43160;SDS011;40968;52.342;5.528;2023-09-18T10:22:46;15.23;;;4.82;;
43160;SDS011;40968;52.342;5.528;2023-09-18T10:25:19;10.00;;;5.03;;
43160;SDS011;40968;52.342;5.528;2023-09-18T10:27:51;13.63;;;4.90;;
43160;SDS011;40968;52.342;5.528;2023-09-18T10:30:19;13.13;;;4.70;;
43160;SDS011;40968;52.342;5.528;2023-09-18T10:32:48;15.45;;;5.38;;
43160;SDS011;40968;52.342;5.528;2023-09-18T10:35:16;14.10;;;4.88;;
43160;SDS011;40968;52.342;5.528;2023-09-18T10:37:44;10.27;;;4.95;;
43160;SDS011;40968;52.342;5.528;2023-09-18T10:40:12;9.55;;;5.00;;
43160;SDS011;40968;52.342;5.528;2023-09-18T10:42:41;12.30;;;6.35;;
43160;SDS011;40968;52.342;5.528;2023-09-18T10:45:09;10.02;;;5.50;;
43160;SDS011;40968;52.342;5.528;2023-09-18T10:47:38;14.95;;;5.57;;
43160;SDS011;40968;52.342;5.528;2023-09-18T10:50:06;14.23;;;6.13;;
43160;SDS011;40968;52.342;5.528;2023-09-18T10:52:34;14.65;;;5.50;;
43160;SDS011;40968;52.342;5.528;2023-09-18T10:55:02;11.73;;;5.72;;
43160;SDS011;40968;52.342;5.528;2023-09-18T10:57:32;11.68;;;5.90;;
43160;SDS011;40968;52.342;5.528;2023-09-18T11:00:01;14.80;;;5.80;;
43160;SDS011;40968;52.342;5.528;2023-09-18T11:02:38;14.65;;;5.80;;
43160;SDS011;40968;52.342;5.528;2023-09-18T11:05:06;11.35;;;6.07;;
43160;SDS011;40968;52.342;5.528;2023-09-18T11:07:33;15.48;;;6.03;;
43160;SDS011;40968;52.342;5.528;2023-09-18T11:10:00;12.93;;;5.60;;
43160;SDS011;40968;52.342;5.528;2023-09-18T11:12:53;12.05;;;5.28;;
43160;SDS011;40968;52.342;5.528;2023-09-18T11:15:31;9.88;;;5.32;;
43160;SDS011;40968;52.342;5.528;2023-09-18T11:17:58;11.45;;;5.30;;
43160;SDS011;40968;52.342;5.528;2023-09-18T11:20:28;9.63;;;5.20;;
43160;SDS011;40968;52.342;5.528;2023-09-18T11:22:55;11.52;;;5.32;;
43160;SDS011;40968;52.342;5.528;2023-09-18T11:28:13;20.00;;;5.57;;
43160;SDS011;40968;52.342;5.528;2023-09-18T11:30:53;7.70;;;4.83;;
43160;SDS011;40968;52.342;5.528;2023-09-18T11:33:30;10.00;;;4.95;;
43160;SDS011;40968;52.342;5.528;2023-09-18T11:36:02;11.20;;;5.75;;
43160;SDS011;40968;52.342;5.528;2023-09-18T11:38:31;11.70;;;5.50;;
43160;SDS011;40968;52.342;5.528;2023-09-18T11:41:00;12.10;;;5.30;;
43160;SDS011;40968;52.342;5.528;2023-09-18T11:43:46;7.95;;;4.45;;
43160;SDS011;40968;52.342;5.528;2023-09-18T11:46:14;12.40;;;5.00;;
43160;SDS011;40968;52.342;5.528;2023-09-18T11:48:44;12.52;;;5.00;;
43160;SDS011;40968;52.342;5.528;2023-09-18T11:51:15;10.63;;;4.65;;
43160;SDS011;40968;52.342;5.528;2023-09-18T11:53:49;9.25;;;4.68;;
43160;SDS011;40968;52.342;5.528;2023-09-18T11:56:18;10.82;;;4.80;;
43160;SDS011;40968;52.342;5.528;2023-09-18T11:58:46;14.30;;;4.90;;
43160;SDS011;40968;52.342;5.528;2023-09-18T12:01:15;9.65;;;4.57;;
43160;SDS011;40968;52.342;5.528;2023-09-18T12:03:42;10.75;;;4.43;;
43160;SDS011;40968;52.342;5.528;2023-09-18T12:06:10;8.68;;;4.07;;
43160;SDS011;40968;52.342;5.528;2023-09-18T12:08:39;10.02;;;4.38;;
43160;SDS011;40968;52.342;5.528;2023-09-18T12:11:06;13.07;;;4.78;;
43160;SDS011;40968;52.342;5.528;2023-09-18T12:13:33;9.85;;;4.18;;
43160;SDS011;40968;52.342;5.528;2023-09-18T12:16:01;8.40;;;4.10;;
43160;SDS011;40968;52.342;5.528;2023-09-18T12:18:31;9.68;;;3.92;;
43160;SDS011;40968;52.342;5.528;2023-09-18T12:21:00;9.35;;;4.20;;
43160;SDS011;40968;52.342;5.528;2023-09-18T12:23:36;11.55;;;4.25;;
43160;SDS011;40968;52.342;5.528;2023-09-18T12:26:03;16.08;;;4.47;;
43160;SDS011;40968;52.342;5.528;2023-09-18T12:28:32;8.70;;;3.88;;
43160;SDS011;40968;52.342;5.528;2023-09-18T12:30:59;9.88;;;4.10;;
43160;SDS011;40968;52.342;5.528;2023-09-18T12:33:30;10.02;;;3.90;;
43160;SDS011;40968;52.342;5.528;2023-09-18T12:36:02;9.35;;;4.53;;
43160;SDS011;40968;52.342;5.528;2023-09-18T12:38:30;11.43;;;5.00;;
43160;SDS011;40968;52.342;5.528;2023-09-18T12:40:57;13.73;;;4.45;;
43160;SDS011;40968;52.342;5.528;2023-09-18T12:43:32;10.50;;;4.85;;
43160;SDS011;40968;52.342;5.528;2023-09-18T12:46:00;12.35;;;5.25;;
43160;SDS011;40968;52.342;5.528;2023-09-18T12:48:28;17.55;;;5.70;;
43160;SDS011;40968;52.342;5.528;2023-09-18T12:50:56;14.30;;;5.53;;
43160;SDS011;40968;52.342;5.528;2023-09-18T12:53:28;11.73;;;5.15;;
43160;SDS011;40968;52.342;5.528;2023-09-18T12:56:03;17.95;;;6.40;;
43160;SDS011;40968;52.342;5.528;2023-09-18T12:58:31;15.30;;;4.93;;
43160;SDS011;40968;52.342;5.528;2023-09-18T13:00:58;11.57;;;4.45;;
43160;SDS011;40968;52.342;5.528;2023-09-18T13:03:33;9.65;;;4.70;;
43160;SDS011;40968;52.342;5.528;2023-09-18T13:06:08;8.68;;;4.50;;
43160;SDS011;40968;52.342;5.528;2023-09-18T13:08:35;14.07;;;4.10;;
43160;SDS011;40968;52.342;5.528;2023-09-18T13:11:02;15.10;;;4.55;;
43160;SDS011;40968;52.342;5.528;2023-09-18T13:13:29;9.48;;;4.25;;
43160;SDS011;40968;52.342;5.528;2023-09-18T13:15:57;9.95;;;3.97;;
43160;SDS011;40968;52.342;5.528;2023-09-18T13:18:24;7.25;;;3.70;;
43160;SDS011;40968;52.342;5.528;2023-09-18T13:20:52;12.88;;;4.30;;
43160;SDS011;40968;52.342;5.528;2023-09-18T13:23:19;6.70;;;3.65;;
43160;SDS011;40968;52.342;5.528;2023-09-18T13:25:46;8.57;;;3.72;;
43160;SDS011;40968;52.342;5.528;2023-09-18T13:28:13;8.77;;;3.53;;
43160;SDS011;40968;52.342;5.528;2023-09-18T13:30:40;10.77;;;3.83;;
43160;SDS011;40968;52.342;5.528;2023-09-18T13:33:09;8.23;;;3.63;;
43160;SDS011;40968;52.342;5.528;2023-09-18T13:35:36;10.77;;;3.92;;
43160;SDS011;40968;52.342;5.528;2023-09-18T13:38:04;10.55;;;3.90;;
43160;SDS011;40968;52.342;5.528;2023-09-18T13:40:34;11.75;;;3.58;;
43160;SDS011;40968;52.342;5.528;2023-09-18T13:43:02;15.05;;;3.85;;
43160;SDS011;40968;52.342;5.528;2023-09-18T13:45:29;9.55;;;4.15;;
43160;SDS011;40968;52.342;5.528;2023-09-18T13:47:56;12.50;;;3.63;;
43160;SDS011;40968;52.342;5.528;2023-09-18T13:50:23;8.15;;;4.15;;
43160;SDS011;40968;52.342;5.528;2023-09-18T13:52:49;11.35;;;4.70;;
43160;SDS011;40968;52.342;5.528;2023-09-18T13:55:16;14.40;;;4.63;;
43160;SDS011;40968;52.342;5.528;2023-09-18T13:57:44;8.18;;;3.75;;
43160;SDS011;40968;52.342;5.528;2023-09-18T14:00:11;11.75;;;4.40;;
43160;SDS011;40968;52.342;5.528;2023-09-18T14:02:39;11.18;;;3.83;;
43160;SDS011;40968;52.342;5.528;2023-09-18T14:05:07;8.95;;;3.80;;
43160;SDS011;40968;52.342;5.528;2023-09-18T14:07:34;6.35;;;3.35;;
43160;SDS011;40968;52.342;5.528;2023-09-18T14:10:03;8.25;;;3.55;;
43160;SDS011;40968;52.342;5.528;2023-09-18T14:12:32;7.97;;;3.35;;
43160;SDS011;40968;52.342;5.528;2023-09-18T14:15:00;7.72;;;3.50;;
43160;SDS011;40968;52.342;5.528;2023-09-18T14:17:27;11.52;;;3.78;;
43160;SDS011;40968;52.342;5.528;2023-09-18T14:19:53;8.35;;;3.70;;
43160;SDS011;40968;52.342;5.528;2023-09-18T14:22:20;6.88;;;3.13;;
43160;SDS011;40968;52.342;5.528;2023-09-18T14:24:47;10.50;;;3.10;;
43160;SDS011;40968;52.342;5.528;2023-09-18T14:27:13;5.78;;;2.90;;
43160;SDS011;40968;52.342;5.528;2023-09-18T14:29:40;8.80;;;2.60;;
43160;SDS011;40968;52.342;5.528;2023-09-18T14:32:08;11.23;;;3.40;;
43160;SDS011;40968;52.342;5.528;2023-09-18T14:34:34;7.25;;;2.90;;
43160;SDS011;40968;52.342;5.528;2023-09-18T14:37:01;7.05;;;2.25;;
43160;SDS011;40968;52.342;5.528;2023-09-18T14:39:29;5.55;;;2.55;;